sensor_id;sensor_type;location;lat;lon;timestamp;P1;durP1;ratioP1;P2;durP2;ratioP2
8716;SDS011;4395;48.554;8.820;2023-10-31T00:01:13;1.27;;;0.13;;
8716;SDS011;4395;48.554;8.820;2023-10-31T00:03:16;1.00;;;0.20;;
8716;SDS011;4395;48.554;8.820;2023-10-31T00:05:19;0.40;;;0.10;;
8716;SDS011;4395;48.554;8.820;2023-10-31T00:07:23;0.43;;;0.10;;
8716;SDS011;4395;48.554;8.820;2023-10-31T00:09:26;1.10;;;0.22;;
8716;SDS011;4395;48.554;8.820;2023-10-31T00:11:29;0.38;;;0.17;;
8716;SDS011;4395;48.554;8.820;2023-10-31T00:13:32;0.10;;;0.10;;
8716;SDS011;4395;48.554;8.820;2023-10-31T00:15:35;0.15;;;0.15;;
8716;SDS011;4395;48.554;8.820;2023-10-31T00:17:37;0.15;;;0.15;;
8716;SDS011;4395;48.554;8.820;2023-10-31T00:19:40;0.13;;;0.13;;
8716;SDS011;4395;48.554;8.820;2023-10-31T00:21:43;1.65;;;0.22;;
8716;SDS011;4395;48.554;8.820;2023-10-31T00:23:48;0.30;;;0.30;;
8716;SDS011;4395;48.554;8.820;2023-10-31T00:25:51;0.35;;;0.20;;
8716;SDS011;4395;48.554;8.820;2023-10-31T00:27:54;0.10;;;0.10;;
8716;SDS011;4395;48.554;8.820;2023-10-31T00:29:57;0.85;;;0.30;;
8716;SDS011;4395;48.554;8.820;2023-10-31T00:32:00;0.75;;;0.30;;
8716;SDS011;4395;48.554;8.820;2023-10-31T00:34:05;0.50;;;0.35;;
8716;SDS011;4395;48.554;8.820;2023-10-31T00:36:08;2.60;;;0.30;;
8716;SDS011;4395;48.554;8.820;2023-10-31T00:38:14;1.08;;;0.30;;
8716;SDS011;4395;48.554;8.820;2023-10-31T00:40:19;1.55;;;0.20;;
8716;SDS011;4395;48.554;8.820;2023-10-31T00:42:21;0.40;;;0.30;;
8716;SDS011;4395;48.554;8.820;2023-10-31T00:44:24;0.10;;;0.10;;
8716;SDS011;4395;48.554;8.820;2023-10-31T00:46:26;0.30;;;0.30;;
8716;SDS011;4395;48.554;8.820;2023-10-31T00:48:29;3.47;;;0.65;;
8716;SDS011;4395;48.554;8.820;2023-10-31T00:50:37;1.90;;;0.32;;
8716;SDS011;4395;48.554;8.820;2023-10-31T00:52:40;0.57;;;0.30;;
8716;SDS011;4395;48.554;8.820;2023-10-31T00:54:43;0.30;;;0.30;;
8716;SDS011;4395;48.554;8.820;2023-10-31T00:56:48;0.20;;;0.20;;
8716;SDS011;4395;48.554;8.820;2023-10-31T00:58:50;0.98;;;0.43;;
8716;SDS011;4395;48.554;8.820;2023-10-31T01:00:52;1.02;;;0.43;;
8716;SDS011;4395;48.554;8.820;2023-10-31T01:02:55;1.02;;;0.30;;
8716;SDS011;4395;48.554;8.820;2023-10-31T01:04:58;0.30;;;0.30;;
8716;SDS011;4395;48.554;8.820;2023-10-31T01:07:01;1.67;;;0.30;;
8716;SDS011;4395;48.554;8.820;2023-10-31T01:09:03;0.22;;;0.22;;
8716;SDS011;4395;48.554;8.820;2023-10-31T01:11:06;0.30;;;0.30;;
8716;SDS011;4395;48.554;8.820;2023-10-31T01:13:11;2.15;;;0.30;;
8716;SDS011;4395;48.554;8.820;2023-10-31T01:15:12;0.52;;;0.40;;
8716;SDS011;4395;48.554;8.820;2023-10-31T01:17:15;1.98;;;1.13;;
8716;SDS011;4395;48.554;8.820;2023-10-31T01:19:18;1.25;;;0.60;;
8716;SDS011;4395;48.554;8.820;2023-10-31T01:21:21;1.33;;;0.90;;
8716;SDS011;4395;48.554;8.820;2023-10-31T01:23:24;1.48;;;1.20;;
8716;SDS011;4395;48.554;8.820;2023-10-31T01:25:27;1.10;;;0.95;;
8716;SDS011;4395;48.554;8.820;2023-10-31T01:27:30;1.50;;;0.50;;
8716;SDS011;4395;48.554;8.820;2023-10-31T01:29:34;0.73;;;0.40;;
8716;SDS011;4395;48.554;8.820;2023-10-31T01:31:37;1.30;;;0.90;;
8716;SDS011;4395;48.554;8.820;2023-10-31T01:33:46;2.55;;;1.20;;
8716;SDS011;4395;48.554;8.820;2023-10-31T01:35:49;0.88;;;0.88;;
8716;SDS011;4395;48.554;8.820;2023-10-31T01:37:52;1.17;;;0.60;;
8716;SDS011;4395;48.554;8.820;2023-10-31T01:39:55;0.40;;;0.40;;
8716;SDS011;4395;48.554;8.820;2023-10-31T01:41:58;0.50;;;0.40;;
8716;SDS011;4395;48.554;8.820;2023-10-31T01:44:00;0.50;;;0.30;;
8716;SDS011;4395;48.554;8.820;2023-10-31T01:46:05;0.40;;;0.40;;
8716;SDS011;4395;48.554;8.820;2023-10-31T01:48:10;0.47;;;0.40;;
8716;SDS011;4395;48.554;8.820;2023-10-31T01:50:12;0.60;;;0.40;;
8716;SDS011;4395;48.554;8.820;2023-10-31T01:52:16;1.17;;;0.50;;
8716;SDS011;4395;48.554;8.820;2023-10-31T01:54:18;2.50;;;0.50;;
8716;SDS011;4395;48.554;8.820;2023-10-31T01:56:22;1.13;;;0.45;;
8716;SDS011;4395;48.554;8.820;2023-10-31T01:58:25;0.43;;;0.43;;
8716;SDS011;4395;48.554;8.820;2023-10-31T02:00:30;0.40;;;0.40;;
8716;SDS011;4395;48.554;8.820;2023-10-31T02:02:34;0.60;;;0.60;;
8716;SDS011;4395;48.554;8.820;2023-10-31T02:04:39;1.85;;;0.30;;
8716;SDS011;4395;48.554;8.820;2023-10-31T02:06:42;1.42;;;0.45;;
8716;SDS011;4395;48.554;8.820;2023-10-31T02:08:44;0.40;;;0.30;;
8716;SDS011;4395;48.554;8.820;2023-10-31T02:10:46;2.78;;;0.50;;
8716;SDS011;4395;48.554;8.820;2023-10-31T02:12:50;0.63;;;0.40;;
8716;SDS011;4395;48.554;8.820;2023-10-31T02:14:52;0.73;;;0.50;;
8716;SDS011;4395;48.554;8.820;2023-10-31T02:16:54;0.90;;;0.50;;
8716;SDS011;4395;48.554;8.820;2023-10-31T02:18:59;1.63;;;0.60;;
8716;SDS011;4395;48.554;8.820;2023-10-31T02:21:02;0.73;;;0.73;;
8716;SDS011;4395;48.554;8.820;2023-10-31T02:23:06;0.82;;;0.50;;
8716;SDS011;4395;48.554;8.820;2023-10-31T02:25:16;0.32;;;0.22;;
8716;SDS011;4395;48.554;8.820;2023-10-31T02:27:19;0.52;;;0.32;;
8716;SDS011;4395;48.554;8.820;2023-10-31T02:29:22;0.65;;;0.50;;
8716;SDS011;4395;48.554;8.820;2023-10-31T02:31:24;1.02;;;0.50;;
8716;SDS011;4395;48.554;8.820;2023-10-31T02:33:27;2.42;;;0.57;;
8716;SDS011;4395;48.554;8.820;2023-10-31T02:35:31;2.00;;;0.50;;
8716;SDS011;4395;48.554;8.820;2023-10-31T02:37:34;0.57;;;0.45;;
8716;SDS011;4395;48.554;8.820;2023-10-31T02:39:38;0.60;;;0.40;;
8716;SDS011;4395;48.554;8.820;2023-10-31T02:41:40;0.95;;;0.52;;
8716;SDS011;4395;48.554;8.820;2023-10-31T02:43:43;1.13;;;0.50;;
8716;SDS011;4395;48.554;8.820;2023-10-31T02:45:46;0.70;;;0.60;;
8716;SDS011;4395;48.554;8.820;2023-10-31T02:47:49;0.57;;;0.57;;
8716;SDS011;4395;48.554;8.820;2023-10-31T02:49:52;1.65;;;0.50;;
8716;SDS011;4395;48.554;8.820;2023-10-31T02:51:55;1.45;;;0.55;;
8716;SDS011;4395;48.554;8.820;2023-10-31T02:53:57;1.25;;;0.30;;
8716;SDS011;4395;48.554;8.820;2023-10-31T02:56:01;1.08;;;0.50;;
8716;SDS011;4395;48.554;8.820;2023-10-31T02:58:06;0.38;;;0.38;;
8716;SDS011;4395;48.554;8.820;2023-10-31T03:00:10;1.25;;;0.75;;
8716;SDS011;4395;48.554;8.820;2023-10-31T03:02:13;0.95;;;0.50;;
8716;SDS011;4395;48.554;8.820;2023-10-31T03:04:16;0.50;;;0.30;;
8716;SDS011;4395;48.554;8.820;2023-10-31T03:06:18;1.42;;;0.50;;
8716;SDS011;4395;48.554;8.820;2023-10-31T03:08:21;2.70;;;0.43;;
8716;SDS011;4395;48.554;8.820;2023-10-31T03:10:25;0.98;;;0.55;;
8716;SDS011;4395;48.554;8.820;2023-10-31T03:12:29;0.75;;;0.43;;
8716;SDS011;4395;48.554;8.820;2023-10-31T03:14:32;0.43;;;0.43;;
8716;SDS011;4395;48.554;8.820;2023-10-31T03:16:34;1.20;;;0.60;;
8716;SDS011;4395;48.554;8.820;2023-10-31T03:18:36;1.92;;;0.50;;
8716;SDS011;4395;48.554;8.820;2023-10-31T03:20:39;0.95;;;0.82;;
8716;SDS011;4395;48.554;8.820;2023-10-31T03:22:43;0.88;;;0.70;;
8716;SDS011;4395;48.554;8.820;2023-10-31T03:24:46;0.80;;;0.60;;
8716;SDS011;4395;48.554;8.820;2023-10-31T03:26:49;3.22;;;0.80;;
8716;SDS011;4395;48.554;8.820;2023-10-31T03:28:53;1.02;;;0.40;;
8716;SDS011;4395;48.554;8.820;2023-10-31T03:30:58;1.70;;;0.50;;
8716;SDS011;4395;48.554;8.820;2023-10-31T03:33:01;0.40;;;0.40;;
8716;SDS011;4395;48.554;8.820;2023-10-31T03:35:04;2.15;;;0.73;;
8716;SDS011;4395;48.554;8.820;2023-10-31T03:37:08;1.48;;;0.55;;
8716;SDS011;4395;48.554;8.820;2023-10-31T03:39:11;2.45;;;1.08;;
8716;SDS011;4395;48.554;8.820;2023-10-31T03:41:13;1.33;;;0.60;;
8716;SDS011;4395;48.554;8.820;2023-10-31T03:43:16;0.38;;;0.35;;
8716;SDS011;4395;48.554;8.820;2023-10-31T03:45:20;1.42;;;0.40;;
8716;SDS011;4395;48.554;8.820;2023-10-31T03:47:23;0.43;;;0.40;;
8716;SDS011;4395;48.554;8.820;2023-10-31T03:49:25;0.75;;;0.30;;
8716;SDS011;4395;48.554;8.820;2023-10-31T03:51:28;0.77;;;0.52;;
8716;SDS011;4395;48.554;8.820;2023-10-31T03:53:30;1.60;;;0.40;;
8716;SDS011;4395;48.554;8.820;2023-10-31T03:55:33;0.30;;;0.28;;
8716;SDS011;4395;48.554;8.820;2023-10-31T03:57:35;0.57;;;0.30;;
8716;SDS011;4395;48.554;8.820;2023-10-31T03:59:38;0.35;;;0.28;;
8716;SDS011;4395;48.554;8.820;2023-10-31T04:01:43;0.82;;;0.45;;
8716;SDS011;4395;48.554;8.820;2023-10-31T04:03:45;0.57;;;0.50;;
8716;SDS011;4395;48.554;8.820;2023-10-31T04:05:48;0.80;;;0.30;;
8716;SDS011;4395;48.554;8.820;2023-10-31T04:07:50;0.40;;;0.30;;
8716;SDS011;4395;48.554;8.820;2023-10-31T04:09:53;0.40;;;0.25;;
8716;SDS011;4395;48.554;8.820;2023-10-31T04:11:56;1.75;;;0.57;;
8716;SDS011;4395;48.554;8.820;2023-10-31T04:13:59;3.00;;;1.05;;
8716;SDS011;4395;48.554;8.820;2023-10-31T04:16:01;0.47;;;0.30;;
8716;SDS011;4395;48.554;8.820;2023-10-31T04:18:05;2.45;;;0.85;;
8716;SDS011;4395;48.554;8.820;2023-10-31T04:20:08;1.63;;;0.40;;
8716;SDS011;4395;48.554;8.820;2023-10-31T04:22:11;1.77;;;0.70;;
8716;SDS011;4395;48.554;8.820;2023-10-31T04:24:14;3.53;;;1.52;;
8716;SDS011;4395;48.554;8.820;2023-10-31T04:26:17;1.98;;;1.20;;
8716;SDS011;4395;48.554;8.820;2023-10-31T04:28:19;0.88;;;0.60;;
8716;SDS011;4395;48.554;8.820;2023-10-31T04:30:22;0.95;;;0.30;;
8716;SDS011;4395;48.554;8.820;2023-10-31T04:32:25;0.45;;;0.38;;
8716;SDS011;4395;48.554;8.820;2023-10-31T04:34:28;0.40;;;0.40;;
8716;SDS011;4395;48.554;8.820;2023-10-31T04:36:31;2.17;;;0.40;;
8716;SDS011;4395;48.554;8.820;2023-10-31T04:38:36;0.30;;;0.22;;
8716;SDS011;4395;48.554;8.820;2023-10-31T04:40:39;0.70;;;0.50;;
8716;SDS011;4395;48.554;8.820;2023-10-31T04:42:42;0.63;;;0.40;;
8716;SDS011;4395;48.554;8.820;2023-10-31T04:44:45;2.45;;;0.63;;
8716;SDS011;4395;48.554;8.820;2023-10-31T04:46:48;0.55;;;0.55;;
8716;SDS011;4395;48.554;8.820;2023-10-31T04:48:51;0.65;;;0.55;;
8716;SDS011;4395;48.554;8.820;2023-10-31T04:50:55;1.10;;;0.40;;
8716;SDS011;4395;48.554;8.820;2023-10-31T04:52:58;0.30;;;0.22;;
8716;SDS011;4395;48.554;8.820;2023-10-31T04:55:01;1.15;;;0.45;;
8716;SDS011;4395;48.554;8.820;2023-10-31T04:57:04;2.22;;;0.50;;
8716;SDS011;4395;48.554;8.820;2023-10-31T04:59:07;0.40;;;0.20;;
8716;SDS011;4395;48.554;8.820;2023-10-31T05:01:10;2.67;;;0.52;;
8716;SDS011;4395;48.554;8.820;2023-10-31T05:03:13;2.20;;;1.40;;
8716;SDS011;4395;48.554;8.820;2023-10-31T05:05:18;0.77;;;0.52;;
8716;SDS011;4395;48.554;8.820;2023-10-31T05:07:23;1.00;;;0.38;;
8716;SDS011;4395;48.554;8.820;2023-10-31T05:09:26;0.60;;;0.50;;
8716;SDS011;4395;48.554;8.820;2023-10-31T05:11:29;1.67;;;0.40;;
8716;SDS011;4395;48.554;8.820;2023-10-31T05:13:31;1.52;;;0.55;;
8716;SDS011;4395;48.554;8.820;2023-10-31T05:15:34;3.20;;;0.68;;
8716;SDS011;4395;48.554;8.820;2023-10-31T05:17:37;2.33;;;0.73;;
8716;SDS011;4395;48.554;8.820;2023-10-31T05:19:40;1.60;;;0.88;;
8716;SDS011;4395;48.554;8.820;2023-10-31T05:21:43;1.60;;;0.50;;
8716;SDS011;4395;48.554;8.820;2023-10-31T05:23:47;1.35;;;0.60;;
8716;SDS011;4395;48.554;8.820;2023-10-31T05:25:50;0.63;;;0.47;;
8716;SDS011;4395;48.554;8.820;2023-10-31T05:27:53;1.80;;;0.70;;
8716;SDS011;4395;48.554;8.820;2023-10-31T05:29:56;1.20;;;0.77;;
8716;SDS011;4395;48.554;8.820;2023-10-31T05:31:59;2.28;;;0.50;;
8716;SDS011;4395;48.554;8.820;2023-10-31T05:34:02;1.23;;;0.47;;
8716;SDS011;4395;48.554;8.820;2023-10-31T05:36:06;0.90;;;0.40;;
8716;SDS011;4395;48.554;8.820;2023-10-31T05:38:19;1.58;;;0.45;;
8716;SDS011;4395;48.554;8.820;2023-10-31T05:40:23;2.60;;;0.60;;
8716;SDS011;4395;48.554;8.820;2023-10-31T05:42:27;1.27;;;0.70;;
8716;SDS011;4395;48.554;8.820;2023-10-31T05:44:30;1.25;;;0.50;;
8716;SDS011;4395;48.554;8.820;2023-10-31T05:46:37;0.60;;;0.60;;
8716;SDS011;4395;48.554;8.820;2023-10-31T05:48:39;0.80;;;0.60;;
8716;SDS011;4395;48.554;8.820;2023-10-31T05:50:42;1.15;;;0.63;;
8716;SDS011;4395;48.554;8.820;2023-10-31T05:52:45;1.10;;;0.88;;
8716;SDS011;4395;48.554;8.820;2023-10-31T05:54:49;0.77;;;0.68;;
8716;SDS011;4395;48.554;8.820;2023-10-31T05:56:53;1.15;;;1.05;;
8716;SDS011;4395;48.554;8.820;2023-10-31T05:58:55;1.00;;;0.40;;
8716;SDS011;4395;48.554;8.820;2023-10-31T06:00:57;0.55;;;0.40;;
8716;SDS011;4395;48.554;8.820;2023-10-31T06:03:00;0.98;;;0.40;;
8716;SDS011;4395;48.554;8.820;2023-10-31T06:05:04;2.97;;;0.90;;
8716;SDS011;4395;48.554;8.820;2023-10-31T06:07:08;0.55;;;0.55;;
8716;SDS011;4395;48.554;8.820;2023-10-31T06:09:13;1.80;;;0.80;;
8716;SDS011;4395;48.554;8.820;2023-10-31T06:11:16;1.33;;;0.68;;
8716;SDS011;4395;48.554;8.820;2023-10-31T06:13:20;1.63;;;0.63;;
8716;SDS011;4395;48.554;8.820;2023-10-31T06:15:23;0.98;;;0.52;;
8716;SDS011;4395;48.554;8.820;2023-10-31T06:17:25;0.57;;;0.55;;
8716;SDS011;4395;48.554;8.820;2023-10-31T06:19:28;1.00;;;0.52;;
8716;SDS011;4395;48.554;8.820;2023-10-31T06:21:31;5.20;;;3.97;;
8716;SDS011;4395;48.554;8.820;2023-10-31T06:23:34;13.15;;;8.63;;
8716;SDS011;4395;48.554;8.820;2023-10-31T06:25:36;25.20;;;14.73;;
8716;SDS011;4395;48.554;8.820;2023-10-31T06:27:38;25.35;;;15.93;;
8716;SDS011;4395;48.554;8.820;2023-10-31T06:29:42;19.90;;;13.48;;
8716;SDS011;4395;48.554;8.820;2023-10-31T06:32:05;11.70;;;8.32;;
8716;SDS011;4395;48.554;8.820;2023-10-31T06:34:11;10.70;;;7.28;;
8716;SDS011;4395;48.554;8.820;2023-10-31T06:36:14;11.65;;;5.53;;
8716;SDS011;4395;48.554;8.820;2023-10-31T06:38:16;2.45;;;1.80;;
8716;SDS011;4395;48.554;8.820;2023-10-31T06:40:19;2.85;;;1.73;;
8716;SDS011;4395;48.554;8.820;2023-10-31T06:42:22;4.15;;;3.05;;
8716;SDS011;4395;48.554;8.820;2023-10-31T06:44:25;3.15;;;2.85;;
8716;SDS011;4395;48.554;8.820;2023-10-31T06:46:29;2.28;;;2.08;;
8716;SDS011;4395;48.554;8.820;2023-10-31T06:48:31;2.35;;;2.15;;
8716;SDS011;4395;48.554;8.820;2023-10-31T06:50:34;2.30;;;1.63;;
8716;SDS011;4395;48.554;8.820;2023-10-31T06:52:36;1.35;;;1.20;;
8716;SDS011;4395;48.554;8.820;2023-10-31T06:54:39;2.03;;;0.90;;
8716;SDS011;4395;48.554;8.820;2023-10-31T06:56:42;2.33;;;0.68;;
8716;SDS011;4395;48.554;8.820;2023-10-31T06:58:45;1.42;;;0.63;;
8716;SDS011;4395;48.554;8.820;2023-10-31T07:00:47;1.17;;;1.08;;
8716;SDS011;4395;48.554;8.820;2023-10-31T07:02:51;1.00;;;0.80;;
8716;SDS011;4395;48.554;8.820;2023-10-31T07:04:54;1.00;;;0.90;;
8716;SDS011;4395;48.554;8.820;2023-10-31T07:06:57;2.40;;;0.85;;
8716;SDS011;4395;48.554;8.820;2023-10-31T07:09:01;1.00;;;0.68;;
8716;SDS011;4395;48.554;8.820;2023-10-31T07:11:06;3.78;;;0.65;;
8716;SDS011;4395;48.554;8.820;2023-10-31T07:13:09;1.67;;;0.80;;
8716;SDS011;4395;48.554;8.820;2023-10-31T07:15:12;1.08;;;0.68;;
8716;SDS011;4395;48.554;8.820;2023-10-31T07:17:14;1.40;;;0.52;;
8716;SDS011;4395;48.554;8.820;2023-10-31T07:19:18;1.75;;;0.90;;
8716;SDS011;4395;48.554;8.820;2023-10-31T07:21:20;1.10;;;0.60;;
8716;SDS011;4395;48.554;8.820;2023-10-31T07:23:23;1.90;;;0.70;;
8716;SDS011;4395;48.554;8.820;2023-10-31T07:25:26;2.58;;;0.82;;
8716;SDS011;4395;48.554;8.820;2023-10-31T07:27:29;0.93;;;0.70;;
8716;SDS011;4395;48.554;8.820;2023-10-31T07:29:32;1.05;;;0.60;;
8716;SDS011;4395;48.554;8.820;2023-10-31T07:31:34;0.98;;;0.50;;
8716;SDS011;4395;48.554;8.820;2023-10-31T07:33:40;5.38;;;4.70;;
8716;SDS011;4395;48.554;8.820;2023-10-31T07:35:44;3.63;;;3.20;;
8716;SDS011;4395;48.554;8.820;2023-10-31T07:37:46;2.17;;;1.92;;
8716;SDS011;4395;48.554;8.820;2023-10-31T07:39:48;5.55;;;5.05;;
8716;SDS011;4395;48.554;8.820;2023-10-31T07:41:52;2.00;;;1.70;;
8716;SDS011;4395;48.554;8.820;2023-10-31T07:43:53;1.10;;;0.93;;
8716;SDS011;4395;48.554;8.820;2023-10-31T07:45:56;1.25;;;0.70;;
8716;SDS011;4395;48.554;8.820;2023-10-31T07:47:59;1.20;;;0.90;;
8716;SDS011;4395;48.554;8.820;2023-10-31T07:50:04;1.17;;;0.65;;
8716;SDS011;4395;48.554;8.820;2023-10-31T07:52:09;1.55;;;0.90;;
8716;SDS011;4395;48.554;8.820;2023-10-31T07:54:10;1.00;;;0.80;;
8716;SDS011;4395;48.554;8.820;2023-10-31T07:56:17;1.60;;;0.60;;
8716;SDS011;4395;48.554;8.820;2023-10-31T07:58:24;2.08;;;0.90;;
8716;SDS011;4395;48.554;8.820;2023-10-31T08:00:27;1.50;;;0.80;;
8716;SDS011;4395;48.554;8.820;2023-10-31T08:02:30;2.78;;;0.90;;
8716;SDS011;4395;48.554;8.820;2023-10-31T08:04:32;1.45;;;0.90;;
8716;SDS011;4395;48.554;8.820;2023-10-31T08:06:35;0.80;;;0.70;;
8716;SDS011;4395;48.554;8.820;2023-10-31T08:08:39;1.70;;;1.02;;
8716;SDS011;4395;48.554;8.820;2023-10-31T08:10:42;2.35;;;1.25;;
8716;SDS011;4395;48.554;8.820;2023-10-31T08:12:45;1.52;;;0.77;;
8716;SDS011;4395;48.554;8.820;2023-10-31T08:14:48;4.88;;;1.40;;
8716;SDS011;4395;48.554;8.820;2023-10-31T08:16:50;1.58;;;0.80;;
8716;SDS011;4395;48.554;8.820;2023-10-31T08:18:53;1.10;;;1.00;;
8716;SDS011;4395;48.554;8.820;2023-10-31T08:20:56;2.47;;;1.33;;
8716;SDS011;4395;48.554;8.820;2023-10-31T08:22:58;2.20;;;1.20;;
8716;SDS011;4395;48.554;8.820;2023-10-31T08:25:03;3.08;;;1.02;;
8716;SDS011;4395;48.554;8.820;2023-10-31T08:27:06;2.05;;;1.35;;
8716;SDS011;4395;48.554;8.820;2023-10-31T08:29:09;3.53;;;1.10;;
8716;SDS011;4395;48.554;8.820;2023-10-31T08:31:12;2.70;;;1.52;;
8716;SDS011;4395;48.554;8.820;2023-10-31T08:33:15;7.65;;;3.40;;
8716;SDS011;4395;48.554;8.820;2023-10-31T08:35:17;4.35;;;2.45;;
8716;SDS011;4395;48.554;8.820;2023-10-31T08:37:20;3.72;;;2.00;;
8716;SDS011;4395;48.554;8.820;2023-10-31T08:39:23;4.35;;;2.42;;
8716;SDS011;4395;48.554;8.820;2023-10-31T08:41:27;3.13;;;1.73;;
8716;SDS011;4395;48.554;8.820;2023-10-31T08:43:30;4.28;;;1.42;;
8716;SDS011;4395;48.554;8.820;2023-10-31T08:45:32;1.33;;;1.00;;
8716;SDS011;4395;48.554;8.820;2023-10-31T08:47:35;2.92;;;1.83;;
8716;SDS011;4395;48.554;8.820;2023-10-31T08:49:37;4.65;;;1.60;;
8716;SDS011;4395;48.554;8.820;2023-10-31T08:51:39;3.30;;;1.60;;
8716;SDS011;4395;48.554;8.820;2023-10-31T08:53:41;2.30;;;1.48;;
8716;SDS011;4395;48.554;8.820;2023-10-31T08:55:44;2.40;;;1.15;;
8716;SDS011;4395;48.554;8.820;2023-10-31T08:57:48;3.58;;;1.38;;
8716;SDS011;4395;48.554;8.820;2023-10-31T08:59:53;2.67;;;1.75;;
8716;SDS011;4395;48.554;8.820;2023-10-31T09:01:56;2.10;;;1.20;;
8716;SDS011;4395;48.554;8.820;2023-10-31T09:03:58;4.22;;;1.15;;
8716;SDS011;4395;48.554;8.820;2023-10-31T09:06:02;3.30;;;1.25;;
8716;SDS011;4395;48.554;8.820;2023-10-31T09:08:06;2.92;;;1.40;;
8716;SDS011;4395;48.554;8.820;2023-10-31T09:10:09;1.98;;;1.20;;
8716;SDS011;4395;48.554;8.820;2023-10-31T09:12:12;4.93;;;1.25;;
8716;SDS011;4395;48.554;8.820;2023-10-31T09:14:16;2.05;;;1.17;;
8716;SDS011;4395;48.554;8.820;2023-10-31T09:16:19;2.75;;;0.98;;
8716;SDS011;4395;48.554;8.820;2023-10-31T09:18:22;2.35;;;0.80;;
8716;SDS011;4395;48.554;8.820;2023-10-31T09:20:25;3.60;;;1.40;;
8716;SDS011;4395;48.554;8.820;2023-10-31T09:22:29;2.22;;;1.17;;
8716;SDS011;4395;48.554;8.820;2023-10-31T09:24:32;3.70;;;1.60;;
8716;SDS011;4395;48.554;8.820;2023-10-31T09:26:35;4.15;;;0.98;;
8716;SDS011;4395;48.554;8.820;2023-10-31T09:28:38;3.90;;;1.00;;
8716;SDS011;4395;48.554;8.820;2023-10-31T09:30:45;2.63;;;1.13;;
8716;SDS011;4395;48.554;8.820;2023-10-31T09:32:48;0.95;;;0.85;;
8716;SDS011;4395;48.554;8.820;2023-10-31T09:34:51;3.70;;;1.30;;
8716;SDS011;4395;48.554;8.820;2023-10-31T09:36:53;1.75;;;1.02;;
8716;SDS011;4395;48.554;8.820;2023-10-31T09:38:57;1.70;;;0.85;;
8716;SDS011;4395;48.554;8.820;2023-10-31T09:40:59;2.88;;;1.25;;
8716;SDS011;4395;48.554;8.820;2023-10-31T09:43:02;2.22;;;0.90;;
8716;SDS011;4395;48.554;8.820;2023-10-31T09:45:06;2.08;;;0.70;;
8716;SDS011;4395;48.554;8.820;2023-10-31T09:47:09;1.92;;;1.23;;
8716;SDS011;4395;48.554;8.820;2023-10-31T09:49:12;2.17;;;0.57;;
8716;SDS011;4395;48.554;8.820;2023-10-31T09:51:15;3.28;;;0.70;;
8716;SDS011;4395;48.554;8.820;2023-10-31T09:53:18;2.17;;;1.70;;
8716;SDS011;4395;48.554;8.820;2023-10-31T09:55:22;2.40;;;2.08;;
8716;SDS011;4395;48.554;8.820;2023-10-31T09:57:26;5.28;;;1.20;;
8716;SDS011;4395;48.554;8.820;2023-10-31T09:59:29;3.05;;;2.40;;
8716;SDS011;4395;48.554;8.820;2023-10-31T10:01:34;1.92;;;1.23;;
8716;SDS011;4395;48.554;8.820;2023-10-31T10:03:39;3.53;;;1.17;;
8716;SDS011;4395;48.554;8.820;2023-10-31T10:05:43;2.50;;;1.20;;
8716;SDS011;4395;48.554;8.820;2023-10-31T10:07:46;2.25;;;0.90;;
8716;SDS011;4395;48.554;8.820;2023-10-31T10:09:49;3.20;;;0.65;;
8716;SDS011;4395;48.554;8.820;2023-10-31T10:11:52;2.15;;;0.80;;
8716;SDS011;4395;48.554;8.820;2023-10-31T10:13:56;1.83;;;0.82;;
8716;SDS011;4395;48.554;8.820;2023-10-31T10:16:00;2.22;;;0.70;;
8716;SDS011;4395;48.554;8.820;2023-10-31T10:18:02;2.95;;;0.82;;
8716;SDS011;4395;48.554;8.820;2023-10-31T10:20:08;1.50;;;0.68;;
8716;SDS011;4395;48.554;8.820;2023-10-31T10:22:12;0.93;;;0.50;;
8716;SDS011;4395;48.554;8.820;2023-10-31T10:24:16;3.17;;;0.50;;
8716;SDS011;4395;48.554;8.820;2023-10-31T10:26:18;0.82;;;0.63;;
8716;SDS011;4395;48.554;8.820;2023-10-31T10:28:25;2.30;;;0.70;;
8716;SDS011;4395;48.554;8.820;2023-10-31T10:30:28;1.02;;;0.60;;
8716;SDS011;4395;48.554;8.820;2023-10-31T10:32:31;1.38;;;0.73;;
8716;SDS011;4395;48.554;8.820;2023-10-31T10:34:34;2.33;;;0.60;;
8716;SDS011;4395;48.554;8.820;2023-10-31T10:36:38;5.45;;;2.60;;
8716;SDS011;4395;48.554;8.820;2023-10-31T10:38:42;1.27;;;1.02;;
8716;SDS011;4395;48.554;8.820;2023-10-31T10:40:47;8.77;;;3.75;;
8716;SDS011;4395;48.554;8.820;2023-10-31T10:42:51;1.33;;;0.50;;
8716;SDS011;4395;48.554;8.820;2023-10-31T10:45:02;1.17;;;0.68;;
8716;SDS011;4395;48.554;8.820;2023-10-31T10:47:06;1.80;;;0.50;;
8716;SDS011;4395;48.554;8.820;2023-10-31T10:49:09;3.28;;;0.90;;
8716;SDS011;4395;48.554;8.820;2023-10-31T10:51:17;0.82;;;0.55;;
8716;SDS011;4395;48.554;8.820;2023-10-31T10:53:26;1.50;;;0.98;;
8716;SDS011;4395;48.554;8.820;2023-10-31T10:55:31;0.82;;;0.65;;
8716;SDS011;4395;48.554;8.820;2023-10-31T10:57:42;4.63;;;2.42;;
8716;SDS011;4395;48.554;8.820;2023-10-31T10:59:50;2.70;;;1.58;;
8716;SDS011;4395;48.554;8.820;2023-10-31T11:01:58;1.77;;;0.70;;
8716;SDS011;4395;48.554;8.820;2023-10-31T11:04:03;0.80;;;0.30;;
8716;SDS011;4395;48.554;8.820;2023-10-31T11:06:08;1.00;;;0.40;;
8716;SDS011;4395;48.554;8.820;2023-10-31T11:08:11;0.60;;;0.57;;
8716;SDS011;4395;48.554;8.820;2023-10-31T11:10:15;2.05;;;0.50;;
8716;SDS011;4395;48.554;8.820;2023-10-31T11:12:19;2.00;;;0.70;;
8716;SDS011;4395;48.554;8.820;2023-10-31T11:14:23;0.40;;;0.40;;
8716;SDS011;4395;48.554;8.820;2023-10-31T11:16:29;0.63;;;0.50;;
8716;SDS011;4395;48.554;8.820;2023-10-31T11:18:35;1.07;;;0.40;;
8716;SDS011;4395;48.554;8.820;2023-10-31T11:20:38;1.43;;;0.40;;
8716;SDS011;4395;48.554;8.820;2023-10-31T11:22:42;0.63;;;0.53;;
8716;SDS011;4395;48.554;8.820;2023-10-31T11:24:47;1.07;;;0.30;;
8716;SDS011;4395;48.554;8.820;2023-10-31T11:26:51;1.37;;;0.40;;
8716;SDS011;4395;48.554;8.820;2023-10-31T11:29:02;0.40;;;0.20;;
8716;SDS011;4395;48.554;8.820;2023-10-31T11:31:08;1.33;;;0.32;;
8716;SDS011;4395;48.554;8.820;2023-10-31T11:33:11;0.50;;;0.47;;
8716;SDS011;4395;48.554;8.820;2023-10-31T11:35:15;1.17;;;0.50;;
8716;SDS011;4395;48.554;8.820;2023-10-31T11:37:20;1.30;;;0.43;;
8716;SDS011;4395;48.554;8.820;2023-10-31T11:39:25;1.55;;;0.40;;
8716;SDS011;4395;48.554;8.820;2023-10-31T11:41:28;0.85;;;0.40;;
8716;SDS011;4395;48.554;8.820;2023-10-31T11:43:37;0.68;;;0.40;;
8716;SDS011;4395;48.554;8.820;2023-10-31T11:45:53;1.92;;;0.40;;
8716;SDS011;4395;48.554;8.820;2023-10-31T11:48:01;0.43;;;0.30;;
8716;SDS011;4395;48.554;8.820;2023-10-31T11:50:03;0.40;;;0.22;;
8716;SDS011;4395;48.554;8.820;2023-10-31T11:52:13;2.08;;;0.45;;
8716;SDS011;4395;48.554;8.820;2023-10-31T11:54:17;1.80;;;0.30;;
8716;SDS011;4395;48.554;8.820;2023-10-31T11:56:20;0.67;;;0.30;;
8716;SDS011;4395;48.554;8.820;2023-10-31T11:58:24;1.10;;;0.30;;
8716;SDS011;4395;48.554;8.820;2023-10-31T12:00:29;1.27;;;0.38;;
8716;SDS011;4395;48.554;8.820;2023-10-31T12:02:32;5.38;;;2.35;;
8716;SDS011;4395;48.554;8.820;2023-10-31T12:04:34;1.65;;;0.38;;
8716;SDS011;4395;48.554;8.820;2023-10-31T12:06:37;0.50;;;0.30;;
8716;SDS011;4395;48.554;8.820;2023-10-31T12:08:40;1.75;;;0.43;;
8716;SDS011;4395;48.554;8.820;2023-10-31T12:10:43;2.53;;;1.77;;
8716;SDS011;4395;48.554;8.820;2023-10-31T12:12:46;2.60;;;2.40;;
8716;SDS011;4395;48.554;8.820;2023-10-31T12:14:47;1.25;;;0.93;;
8716;SDS011;4395;48.554;8.820;2023-10-31T12:16:51;0.68;;;0.55;;
8716;SDS011;4395;48.554;8.820;2023-10-31T12:18:55;2.50;;;2.17;;
8716;SDS011;4395;48.554;8.820;2023-10-31T12:20:58;2.83;;;0.70;;
8716;SDS011;4395;48.554;8.820;2023-10-31T12:23:02;0.98;;;0.52;;
8716;SDS011;4395;48.554;8.820;2023-10-31T12:25:06;1.15;;;0.63;;
8716;SDS011;4395;48.554;8.820;2023-10-31T12:27:10;2.88;;;0.50;;
8716;SDS011;4395;48.554;8.820;2023-10-31T12:29:15;2.03;;;0.80;;
8716;SDS011;4395;48.554;8.820;2023-10-31T12:31:20;0.60;;;0.40;;
8716;SDS011;4395;48.554;8.820;2023-10-31T12:33:25;1.20;;;0.98;;
8716;SDS011;4395;48.554;8.820;2023-10-31T12:35:29;0.40;;;0.40;;
8716;SDS011;4395;48.554;8.820;2023-10-31T12:37:31;3.22;;;1.98;;
8716;SDS011;4395;48.554;8.820;2023-10-31T12:39:35;4.07;;;2.50;;
8716;SDS011;4395;48.554;8.820;2023-10-31T12:41:38;2.60;;;0.40;;
8716;SDS011;4395;48.554;8.820;2023-10-31T12:43:42;0.60;;;0.43;;
8716;SDS011;4395;48.554;8.820;2023-10-31T12:45:45;1.10;;;0.40;;
8716;SDS011;4395;48.554;8.820;2023-10-31T12:47:59;7.77;;;3.47;;